Time;durP1;ratioP1;P1;durP2;ratioP2;P2;SDS_P1;SDS_P2;PMS_P1;PMS_P2;Temp;Humidity;BMP_temperature;BMP_pressure;BME280_temperature;BME280_humidity;BME280_pressure;Samples;Min_cycle;Max_cycle;Signal;HPM_P1;HPM_P2
2022/09/24 00:00:50;;;;;;;43.10;32.50;;;13.70;99.90;;;;;;4916438;29;20040;-70
2022/09/24 00:03:18;;;;;;;43.30;32.50;;;13.70;99.90;;;;;;4924970;29;20051;-69
2022/09/24 00:05:45;;;;;;;43.20;32.55;;;13.90;99.90;;;;;;4919541;29;20533;-70
2022/09/24 00:08:11;;;;;;;46.03;33.25;;;13.70;99.90;;;;;;4917510;29;20051;-69
2022/09/24 00:10:39;;;;;;;50.45;35.65;;;13.70;99.90;;;;;;4915128;29;20044;-70
2022/09/24 00:13:07;;;;;;;45.38;33.08;;;13.60;99.90;;;;;;4917317;29;20099;-69
2022/09/24 00:15:37;;;;;;;45.00;34.42;;;13.70;99.90;;;;;;4919107;29;20521;-70
2022/09/24 00:18:04;;;;;;;47.08;33.22;;;13.60;99.90;;;;;;4884206;29;20092;-69
2022/09/24 00:20:30;;;;;;;41.40;32.92;;;13.60;99.90;;;;;;4910635;29;20052;-69
2022/09/24 00:22:56;;;;;;;44.17;32.35;;;13.60;99.90;;;;;;4917604;29;20051;-70
2022/09/24 00:28:06;;;;;;;54.10;38.05;;;13.60;99.90;;;;;;4917211;29;20048;-68
2022/09/24 00:30:31;;;;;;;53.85;38.90;;;13.70;99.90;;;;;;4913764;29;20052;-69
2022/09/24 00:32:57;;;;;;;53.47;40.22;;;13.70;99.90;;;;;;4915870;29;20059;-70
2022/09/24 00:35:24;;;;;;;53.55;39.65;;;13.70;99.90;;;;;;4916315;29;20119;-70
2022/09/24 00:37:49;;;;;;;54.25;39.05;;;13.70;99.90;;;;;;4914675;29;20107;-69
2022/09/24 00:40:15;;;;;;;54.80;39.88;;;13.70;99.90;;;;;;4912197;29;20542;-69
2022/09/24 00:42:40;;;;;;;53.70;40.92;;;13.70;99.90;;;;;;4911642;29;20032;-69
2022/09/24 00:45:09;;;;;;;58.20;41.25;;;13.70;99.90;;;;;;4914293;29;20048;-70
2022/09/24 00:47:42;;;;;;;56.58;41.03;;;13.70;99.90;;;;;;4904576;29;20053;-69
2022/09/24 00:50:10;;;;;;;58.92;42.55;;;13.70;99.90;;;;;;4896494;29;20079;-70
2022/09/24 00:52:41;;;;;;;63.38;44.05;;;13.70;99.90;;;;;;4902403;29;20044;-70
2022/09/24 00:55:08;;;;;;;57.95;43.67;;;13.70;99.90;;;;;;4902228;29;20494;-70
2022/09/24 00:57:34;;;;;;;60.78;40.60;;;13.70;99.90;;;;;;4904087;29;20044;-69
2022/09/24 01:00:00;;;;;;;59.10;44.00;;;13.70;99.90;;;;;;4899201;29;20103;-70
2022/09/24 01:02:25;;;;;;;61.75;44.28;;;13.70;99.90;;;;;;4875437;29;20483;-69
2022/09/24 01:04:52;;;;;;;61.83;43.53;;;13.70;99.90;;;;;;4897214;29;20127;-69
2022/09/24 01:07:17;;;;;;;63.10;46.75;;;13.70;99.90;;;;;;4894435;29;20414;-69
2022/09/24 01:09:43;;;;;;;63.88;44.95;;;14.00;99.90;;;;;;4897788;29;20041;-69
2022/09/24 01:12:28;;;;;;;64.07;45.72;;;13.70;99.90;;;;;;4896470;29;20489;-70
2022/09/24 01:15:09;;;;;;;61.03;44.70;;;13.70;99.90;;;;;;4896121;29;20418;-70
2022/09/24 01:17:53;;;;;;;59.40;45.40;;;13.70;99.90;;;;;;4897199;29;20080;-68
2022/09/24 01:20:39;;;;;;;62.47;45.80;;;13.70;99.90;;;;;;4898113;29;20048;-68
2022/09/24 01:23:22;;;;;;;62.92;44.38;;;13.70;99.90;;;;;;4894776;29;20048;-69
2022/09/24 01:26:07;;;;;;;65.57;48.60;;;13.70;99.90;;;;;;4878684;29;20494;-69
2022/09/24 01:29:10;;;;;;;66.55;47.65;;;13.70;99.90;;;;;;4897202;29;20091;-70
2022/09/24 01:31:45;;;;;;;62.60;46.38;;;13.70;99.90;;;;;;4911293;29;20131;-70
2022/09/24 02:23:27;;;;;;;84.28;57.45;;;13.60;99.90;;;;;;5782506;23;20013;-71
2022/09/24 02:25:57;;;;;;;78.72;55.75;;;13.60;99.90;;;;;;4933839;29;20055;-71
2022/09/24 02:28:24;;;;;;;72.72;53.35;;;13.60;99.90;;;;;;4935401;29;20051;-71
2022/09/24 02:30:56;;;;;;;81.20;56.58;;;13.60;99.90;;;;;;4933283;29;20486;-71
2022/09/24 02:36:10;;;;;;;92.10;60.38;;;13.60;99.90;;;;;;4933321;29;20052;-72
2022/09/24 02:38:36;;;;;;;85.72;58.60;;;13.60;99.90;;;;;;4931818;29;20518;-72
2022/09/24 02:41:03;;;;;;;76.70;53.53;;;13.60;99.90;;;;;;4935709;29;20036;-72
2022/09/24 02:43:29;;;;;;;76.78;53.25;;;13.60;99.90;;;;;;4917802;29;20058;-71
2022/09/24 02:45:54;;;;;;;74.20;54.35;;;13.60;99.90;;;;;;4935004;29;20032;-71
2022/09/24 02:48:20;;;;;;;80.60;54.58;;;13.70;99.90;;;;;;4931221;29;20036;-71
2022/09/24 02:50:46;;;;;;;88.80;57.53;;;13.70;99.90;;;;;;4933780;29;20126;-71
2022/09/24 02:53:11;;;;;;;80.07;55.33;;;13.70;99.90;;;;;;4915100;29;20136;-72
2022/09/24 02:55:37;;;;;;;74.82;53.03;;;13.60;99.90;;;;;;4932910;29;20414;-72
2022/09/24 02:58:02;;;;;;;82.40;55.50;;;13.70;99.90;;;;;;4937549;29;20051;-72
2022/09/24 03:00:28;;;;;;;69.30;49.10;;;13.50;99.90;;;;;;4931126;29;20094;-71
2022/09/24 03:02:54;;;;;;;66.97;47.67;;;13.60;99.90;;;;;;4931546;29;20036;-72
2022/09/24 03:05:20;;;;;;;62.90;46.22;;;13.70;99.90;;;;;;4933831;29;20044;-72
2022/09/24 03:07:46;;;;;;;59.88;42.72;;;13.60;99.90;;;;;;4935363;29;20151;-72
2022/09/24 03:10:12;;;;;;;60.42;44.35;;;13.60;99.90;;;;;;4914450;29;20060;-72
2022/09/24 03:12:37;;;;;;;64.28;46.85;;;13.60;99.90;;;;;;4932335;29;20036;-72
2022/09/24 03:15:04;;;;;;;73.30;47.85;;;13.60;99.90;;;;;;4923626;29;20040;-73
2022/09/24 03:17:29;;;;;;;62.05;43.65;;;13.70;99.90;;;;;;4930774;29;20052;-72
2022/09/24 03:19:55;;;;;;;53.67;38.78;;;13.70;99.90;;;;;;4932575;29;20099;-72
2022/09/24 03:22:21;;;;;;;51.85;38.00;;;13.60;99.90;;;;;;4926424;29;20051;-71
2022/09/24 03:24:46;;;;;;;40.92;33.67;;;13.60;99.90;;;;;;4914841;29;20359;-72
2022/09/24 03:27:12;;;;;;;51.90;36.95;;;13.60;99.90;;;;;;4914272;29;20052;-72
2022/09/24 03:32:21;;;;;;;47.00;35.42;;;13.60;99.90;;;;;;4917226;29;20052;-72
2022/09/24 03:34:47;;;;;;;43.20;33.63;;;13.60;99.90;;;;;;4917503;29;20072;-71
2022/09/24 03:37:12;;;;;;;45.85;35.03;;;13.60;99.90;;;;;;4915527;29;20406;-72
2022/09/24 03:39:38;;;;;;;44.42;33.65;;;13.70;99.90;;;;;;4915953;29;20048;-72
2022/09/24 03:42:04;;;;;;;64.03;39.47;;;13.60;99.90;;;;;;4916217;29;20082;-71
2022/09/24 03:44:29;;;;;;;46.28;35.42;;;13.60;99.90;;;;;;4917070;29;20123;-72
2022/09/24 03:46:55;;;;;;;43.20;31.83;;;13.60;99.90;;;;;;4914679;29;20051;-72
2022/09/24 03:49:22;;;;;;;46.40;33.17;;;13.60;99.90;;;;;;4926465;29;20086;-71
2022/09/24 03:51:49;;;;;;;39.25;31.42;;;13.60;99.90;;;;;;4923179;29;20110;-72
2022/09/24 03:54:15;;;;;;;36.15;27.60;;;13.70;99.90;;;;;;4913061;29;20048;-72
2022/09/24 03:56:41;;;;;;;39.70;29.42;;;13.70;99.90;;;;;;4914394;29;20044;-72
2022/09/24 03:59:11;;;;;;;37.53;28.92;;;13.70;99.90;;;;;;4917510;29;20048;-72
2022/09/24 04:01:37;;;;;;;41.50;30.00;;;13.70;99.90;;;;;;4912724;29;20390;-72
2022/09/24 04:04:03;;;;;;;44.83;29.20;;;13.70;99.90;;;;;;4913468;29;20533;-72
2022/09/24 04:06:29;;;;;;;41.83;28.08;;;13.70;99.90;;;;;;4915810;29;20440;-72
2022/09/24 04:08:55;;;;;;;43.90;26.08;;;13.70;99.90;;;;;;4915166;29;20430;-72
2022/09/24 04:11:22;;;;;;;44.83;26.10;;;13.80;99.90;;;;;;4911337;29;20037;-72
2022/09/24 04:13:47;;;;;;;41.78;23.05;;;13.80;99.90;;;;;;4878431;29;20053;-71
2022/09/24 04:16:13;;;;;;;35.75;22.15;;;13.80;99.90;;;;;;4913436;29;20040;-71
2022/09/24 04:18:38;;;;;;;39.17;19.70;;;13.80;99.90;;;;;;4914324;29;20124;-72
2022/09/24 04:21:04;;;;;;;37.13;18.55;;;13.90;99.90;;;;;;4914518;29;20466;-72
2022/09/24 04:23:30;;;;;;;33.00;17.27;;;13.90;99.90;;;;;;4920703;29;20059;-72
2022/09/24 04:25:57;;;;;;;27.00;15.80;;;13.90;99.90;;;;;;4935641;29;20048;-71
2022/09/24 04:28:24;;;;;;;27.67;14.40;;;13.90;99.90;;;;;;4918688;29;20082;-72
2022/09/24 04:30:50;;;;;;;29.90;12.65;;;13.90;99.90;;;;;;4930399;29;20047;-71
2022/09/24 04:33:15;;;;;;;25.20;11.82;;;14.00;99.90;;;;;;4935840;29;20050;-71
2022/09/24 04:35:41;;;;;;;18.52;8.27;;;13.90;99.90;;;;;;4934656;29;20138;-71
2022/09/24 04:38:07;;;;;;;21.90;6.50;;;13.90;99.90;;;;;;4934060;29;20054;-71
2022/09/24 04:40:33;;;;;;;17.40;5.90;;;14.10;99.90;;;;;;4936269;29;20044;-71
2022/09/24 04:42:58;;;;;;;13.48;4.43;;;13.90;99.90;;;;;;4917632;29;20082;-71
2022/09/24 04:45:25;;;;;;;13.05;3.85;;;13.90;99.90;;;;;;4934915;29;20425;-71
2022/09/24 04:47:54;;;;;;;19.08;3.63;;;13.90;99.90;;;;;;4926514;29;20062;-70
2022/09/24 04:50:21;;;;;;;17.33;4.13;;;13.80;99.90;;;;;;4935088;29;20417;-71
2022/09/24 04:52:47;;;;;;;14.73;3.65;;;13.80;99.90;;;;;;4927672;29;20044;-71
2022/09/24 04:55:13;;;;;;;16.02;3.38;;;13.80;99.90;;;;;;4935224;29;20046;-72
2022/09/24 04:57:40;;;;;;;10.77;2.40;;;13.90;99.90;;;;;;4934807;29;20051;-71
2022/09/24 05:00:08;;;;;;;13.95;2.47;;;13.90;99.90;;;;;;4922142;29;20090;-72
2022/09/24 05:02:34;;;;;;;19.88;2.75;;;13.90;99.90;;;;;;4932773;29;20145;-70
2022/09/24 05:05:00;;;;;;;15.90;2.80;;;13.90;99.90;;;;;;4928710;29;20039;-70
2022/09/24 05:07:25;;;;;;;15.05;2.70;;;13.90;99.90;;;;;;4931952;29;20417;-70
2022/09/24 05:09:51;;;;;;;9.13;2.50;;;13.80;99.90;;;;;;4930696;29;20500;-71
2022/09/24 05:12:17;;;;;;;23.30;3.05;;;13.80;99.90;;;;;;4923316;29;20505;-70
2022/09/24 05:14:43;;;;;;;19.13;3.33;;;13.70;99.90;;;;;;4922649;29;20157;-70
2022/09/24 05:17:09;;;;;;;14.07;2.85;;;13.70;99.90;;;;;;4932199;29;20061;-71
2022/09/24 05:19:34;;;;;;;25.38;4.03;;;13.70;99.90;;;;;;4931615;29;20179;-71
2022/09/24 05:22:00;;;;;;;15.93;2.85;;;13.70;99.90;;;;;;4912220;29;20482;-69
2022/09/24 05:24:25;;;;;;;12.20;2.38;;;13.70;99.90;;;;;;4929537;29;20142;-69
2022/09/24 05:27:09;;;;;;;13.68;2.70;;;13.80;99.90;;;;;;4932533;29;20052;-69
2022/09/24 05:29:39;;;;;;;10.85;2.50;;;13.80;99.90;;;;;;4930925;29;20047;-70
2022/09/24 05:32:17;;;;;;;19.95;2.55;;;13.80;99.90;;;;;;4932722;29;20066;-70
2022/09/24 05:34:44;;;;;;;18.27;2.78;;;13.70;99.90;;;;;;4929705;29;20079;-71
2022/09/24 05:37:11;;;;;;;17.08;2.90;;;13.80;99.90;;;;;;4932284;29;20123;-69
2022/09/24 05:39:37;;;;;;;10.73;2.13;;;13.70;99.90;;;;;;4929181;29;20122;-70
2022/09/24 05:42:03;;;;;;;11.10;2.35;;;13.70;99.90;;;;;;4937908;29;20047;-70
2022/09/24 05:44:30;;;;;;;15.20;3.08;;;13.80;99.90;;;;;;4928762;29;20043;-70
2022/09/24 05:46:56;;;;;;;13.45;2.65;;;13.80;99.90;;;;;;4913848;29;20059;-71
2022/09/24 05:49:22;;;;;;;19.02;2.38;;;13.80;99.90;;;;;;4933481;29;20082;-70
2022/09/24 05:51:49;;;;;;;12.10;2.97;;;13.80;99.90;;;;;;4934372;29;20079;-70
2022/09/24 05:54:15;;;;;;;15.68;2.65;;;13.80;99.90;;;;;;4933083;29;20043;-70
2022/09/24 05:56:42;;;;;;;14.50;2.90;;;13.80;99.90;;;;;;4928298;29;20046;-70
2022/09/24 05:59:07;;;;;;;14.73;3.05;;;13.80;99.90;;;;;;4929962;29;20046;-70
2022/09/24 06:01:33;;;;;;;20.92;2.75;;;13.80;99.90;;;;;;4910783;29;20047;-70
2022/09/24 06:03:59;;;;;;;16.20;2.88;;;13.80;99.90;;;;;;4930029;29;20036;-70
2022/09/24 06:06:26;;;;;;;14.82;2.67;;;13.80;99.90;;;;;;4932106;29;20155;-70
2022/09/24 06:08:53;;;;;;;32.45;3.45;;;13.80;99.90;;;;;;4915357;29;20047;-70
2022/09/24 06:11:21;;;;;;;16.58;2.53;;;13.80;99.90;;;;;;4929273;29;20379;-70
2022/09/24 06:13:50;;;;;;;21.55;3.75;;;13.80;99.90;;;;;;4921503;29;20522;-70
2022/09/24 06:16:16;;;;;;;18.20;3.05;;;13.80;99.90;;;;;;4932000;29;20044;-72
2022/09/24 06:18:43;;;;;;;19.08;3.05;;;13.90;99.90;;;;;;4929847;29;20051;-71
2022/09/24 06:21:16;;;;;;;17.00;3.17;;;13.90;99.90;;;;;;4931111;29;20066;-71
2022/09/24 06:23:44;;;;;;;18.00;3.13;;;14.00;99.90;;;;;;4933089;29;20142;-71
2022/09/24 06:26:11;;;;;;;18.05;3.28;;;14.00;99.90;;;;;;4930644;29;20387;-71
2022/09/24 06:28:37;;;;;;;19.17;3.17;;;14.00;99.90;;;;;;4926287;29;20054;-72
2022/09/24 06:31:04;;;;;;;20.48;3.08;;;13.90;99.90;;;;;;4930347;29;20044;-72
2022/09/24 06:33:31;;;;;;;12.05;2.67;;;13.90;99.90;;;;;;4912855;29;20044;-72
2022/09/24 06:36:01;;;;;;;13.32;2.47;;;14.00;99.90;;;;;;4910328;29;20511;-71
2022/09/24 06:38:28;;;;;;;15.93;3.33;;;14.00;99.90;;;;;;4929147;29;20063;-70
2022/09/24 06:41:02;;;;;;;22.02;2.67;;;14.00;99.90;;;;;;4927113;29;20044;-71
2022/09/24 06:43:28;;;;;;;16.38;2.90;;;14.00;99.90;;;;;;4921965;29;20043;-72
2022/09/24 06:45:58;;;;;;;17.80;3.20;;;14.00;99.90;;;;;;4926220;29;20044;-71
2022/09/24 06:48:25;;;;;;;8.90;2.63;;;14.00;99.90;;;;;;4931961;29;20044;-73
2022/09/24 06:50:51;;;;;;;17.48;3.40;;;14.00;99.90;;;;;;4931254;29;20040;-72
2022/09/24 06:53:17;;;;;;;12.43;2.55;;;14.00;99.90;;;;;;4922054;29;20100;-70
2022/09/24 06:55:44;;;;;;;15.55;3.25;;;14.00;99.90;;;;;;4911896;29;20506;-70
2022/09/24 06:58:12;;;;;;;19.88;2.70;;;14.00;99.90;;;;;;4930098;29;20043;-71
2022/09/24 07:00:38;;;;;;;17.05;3.00;;;14.00;99.90;;;;;;4936305;29;20152;-70
2022/09/24 07:03:05;;;;;;;14.70;2.83;;;14.10;99.90;;;;;;4937078;29;20070;-70
2022/09/24 07:05:32;;;;;;;16.10;3.22;;;14.10;99.90;;;;;;4935365;29;20047;-70
2022/09/24 07:07:58;;;;;;;22.50;2.85;;;14.20;99.90;;;;;;4935974;29;20094;-70
2022/09/24 07:10:26;;;;;;;18.80;3.40;;;14.10;99.90;;;;;;4933701;29;20055;-72
2022/09/24 07:12:51;;;;;;;19.77;3.15;;;14.20;99.90;;;;;;4936265;29;20040;-72
2022/09/24 07:15:17;;;;;;;15.70;3.08;;;14.20;99.90;;;;;;4937545;29;20039;-72
2022/09/24 07:17:43;;;;;;;14.77;2.70;;;14.20;99.90;;;;;;4937666;29;20047;-71
2022/09/24 07:20:08;;;;;;;10.15;2.55;;;14.20;99.90;;;;;;4933754;29;20035;-71
2022/09/24 07:22:39;;;;;;;18.58;3.20;;;14.20;99.90;;;;;;4931575;29;20401;-73
2022/09/24 07:25:09;;;;;;;19.00;2.95;;;14.30;99.90;;;;;;4934544;29;20052;-74
2022/09/24 07:27:36;;;;;;;23.45;4.20;;;14.30;99.90;;;;;;4936493;29;20051;-71
2022/09/24 07:30:06;;;;;;;16.67;2.65;;;14.30;99.90;;;;;;4935675;29;20055;-71
2022/09/24 07:32:32;;;;;;;8.60;2.38;;;14.30;99.90;;;;;;4931157;29;20127;-73
2022/09/24 07:34:58;;;;;;;12.80;2.63;;;14.30;99.90;;;;;;4915396;29;20138;-71
2022/09/24 07:37:24;;;;;;;16.15;2.70;;;14.30;99.90;;;;;;4929581;29;20482;-71
2022/09/24 07:39:49;;;;;;;13.13;2.00;;;14.30;99.90;;;;;;4935316;29;20529;-71
2022/09/24 07:42:15;;;;;;;6.03;1.45;;;14.20;99.90;;;;;;4934443;29;20367;-71
2022/09/24 07:44:41;;;;;;;8.40;1.77;;;14.20;99.90;;;;;;4932206;29;20044;-71
2022/09/24 07:47:07;;;;;;;6.65;1.60;;;14.20;99.90;;;;;;4925731;29;20048;-71
2022/09/24 07:49:33;;;;;;;3.22;1.15;;;14.20;99.90;;;;;;4925575;29;20123;-71
2022/09/24 07:51:59;;;;;;;6.57;2.75;;;14.20;99.90;;;;;;4929914;29;20036;-71
2022/09/24 07:54:25;;;;;;;6.35;1.33;;;14.20;99.90;;;;;;4932291;29;20048;-71
2022/09/24 07:56:50;;;;;;;10.88;2.15;;;14.10;99.90;;;;;;4930652;29;20079;-70
2022/09/24 07:59:18;;;;;;;7.47;1.90;;;14.10;99.90;;;;;;4932505;29;20066;-71
2022/09/24 08:01:44;;;;;;;12.75;1.95;;;14.10;99.90;;;;;;4918492;29;20051;-71
2022/09/24 08:04:10;;;;;;;9.60;1.77;;;14.20;99.90;;;;;;4936429;29;20040;-71
2022/09/24 08:06:36;;;;;;;5.55;1.70;;;14.10;99.90;;;;;;4935354;29;20035;-71
2022/09/24 08:09:02;;;;;;;12.02;2.25;;;14.20;99.90;;;;;;4936688;29;20043;-71
2022/09/24 08:11:28;;;;;;;15.70;2.20;;;14.10;99.90;;;;;;4924526;29;20492;-71
2022/09/24 08:13:55;;;;;;;11.40;1.90;;;14.20;99.90;;;;;;4917882;29;20067;-72
2022/09/24 08:16:21;;;;;;;6.95;1.75;;;14.20;99.90;;;;;;4930993;29;20043;-71
2022/09/24 08:18:47;;;;;;;13.52;2.42;;;14.30;99.90;;;;;;4934922;29;20098;-71
2022/09/24 08:21:14;;;;;;;12.18;2.40;;;14.40;99.90;;;;;;4934156;29;20126;-72
2022/09/24 08:23:43;;;;;;;14.52;2.25;;;14.40;99.90;;;;;;4920881;29;20060;-72
2022/09/24 08:26:12;;;;;;;13.93;2.83;;;14.40;99.90;;;;;;4918132;29;20056;-70
2022/09/24 08:28:40;;;;;;;13.05;2.47;;;14.40;99.90;;;;;;4930275;29;20055;-70
2022/09/24 08:31:07;;;;;;;;;;;14.40;99.90;;;;;;4936407;29;20390;-71
2022/09/24 08:33:34;;;;;;;11.73;2.63;;;14.40;99.90;;;;;;4935024;29;20006;-71
2022/09/24 08:36:02;;;;;;;21.25;3.42;;;14.40;99.90;;;;;;4934651;29;20494;-71
2022/09/24 08:38:27;;;;;;;22.02;3.92;;;14.50;99.90;;;;;;4933979;29;20498;-72
2022/09/24 08:41:11;;;;;;;15.90;2.30;;;14.50;99.90;;;;;;4933923;29;20036;-71
2022/09/24 08:44:02;;;;;;;14.00;2.60;;;14.50;99.90;;;;;;4917453;29;20048;-70
2022/09/24 08:49:47;;;;;;;9.73;1.95;;;14.50;99.90;;;;;;4926454;29;20052;-71
2022/09/24 08:52:28;;;;;;;12.80;2.03;;;14.50;99.90;;;;;;4932816;29;20170;-71
2022/09/24 08:54:57;;;;;;;13.32;2.42;;;14.50;99.90;;;;;;4934048;29;20527;-70
2022/09/24 08:57:23;;;;;;;16.20;2.72;;;14.50;99.90;;;;;;4928454;29;20409;-72
2022/09/24 08:59:52;;;;;;;14.02;2.60;;;14.60;99.90;;;;;;4927492;29;20050;-72
2022/09/24 09:02:57;;;;;;;12.60;2.25;;;14.60;99.90;;;;;;4935828;29;20545;-71
2022/09/24 09:05:48;;;;;;;12.10;2.03;;;14.60;99.90;;;;;;4917748;29;20691;-71
2022/09/24 09:08:48;;;;;;;10.68;2.00;;;14.70;99.90;;;;;;4928303;29;20058;-72
2022/09/24 09:11:18;;;;;;;10.88;1.90;;;14.70;99.90;;;;;;4933504;29;20528;-71
2022/09/24 09:14:04;;;;;;;10.77;1.88;;;14.80;99.90;;;;;;4932857;29;20113;-71
2022/09/24 09:16:37;;;;;;;11.10;2.72;;;14.80;99.90;;;;;;4934410;29;20075;-72
2022/09/24 09:19:05;;;;;;;8.80;1.90;;;14.80;99.90;;;;;;4931610;29;20051;-72
2022/09/24 09:21:40;;;;;;;10.88;3.13;;;14.80;99.90;;;;;;4933663;29;20055;-73
2022/09/24 09:24:19;;;;;;;10.68;2.20;;;14.70;99.90;;;;;;4929866;29;20635;-71
2022/09/24 09:26:55;;;;;;;9.88;1.90;;;14.60;99.90;;;;;;4934011;29;20044;-71
2022/09/24 09:29:26;;;;;;;4.88;1.30;;;14.60;99.90;;;;;;4918568;29;20044;-71
2022/09/24 09:32:15;;;;;;;9.77;2.10;;;14.60;99.90;;;;;;4914967;29;20061;-71
2022/09/24 09:34:50;;;;;;;14.02;2.00;;;14.50;99.90;;;;;;4934447;29;20357;-71
2022/09/24 09:37:30;;;;;;;7.28;1.67;;;14.50;99.90;;;;;;4914715;29;20048;-72
2022/09/24 09:40:09;;;;;;;14.85;3.08;;;14.50;99.90;;;;;;4920712;29;20453;-71
2022/09/24 09:42:39;;;;;;;8.32;1.77;;;14.50;99.90;;;;;;4935037;29;20095;-71
2022/09/24 09:45:43;;;;;;;7.35;1.40;;;14.50;99.90;;;;;;4935170;29;20067;-71
2022/09/24 09:48:13;;;;;;;3.88;1.65;;;14.50;99.90;;;;;;4931852;29;20051;-71
2022/09/24 09:50:59;;;;;;;5.68;1.15;;;14.50;99.90;;;;;;4917341;29;20121;-72
2022/09/24 09:53:30;;;;;;;6.25;1.40;;;14.40;99.90;;;;;;4920868;29;20104;-70
2022/09/24 09:56:05;;;;;;;10.25;1.88;;;14.40;99.90;;;;;;4925023;29;20035;-71
2022/09/24 09:58:46;;;;;;;8.30;2.05;;;14.50;99.90;;;;;;4931417;29;20501;-71
2022/09/24 10:01:14;;;;;;;4.53;1.23;;;14.50;99.90;;;;;;4917628;29;20048;-71
2022/09/24 10:03:43;;;;;;;9.23;1.88;;;14.60;99.90;;;;;;4935148;29;20043;-71
2022/09/24 10:06:11;;;;;;;8.18;1.77;;;14.50;99.90;;;;;;4928637;29;20410;-71
2022/09/24 10:08:39;;;;;;;6.13;1.80;;;14.60;99.90;;;;;;4930962;29;20518;-71
2022/09/24 10:11:06;;;;;;;6.30;1.70;;;14.60;99.90;;;;;;4925224;29;20087;-72
2022/09/24 10:13:32;;;;;;;8.70;1.63;;;14.60;99.90;;;;;;4931211;29;20111;-72
2022/09/24 10:16:03;;;;;;;9.23;1.50;;;14.70;99.90;;;;;;4934926;29;20070;-72
2022/09/24 10:18:32;;;;;;;10.02;2.22;;;14.70;99.90;;;;;;4932927;29;20075;-72
2022/09/24 10:21:04;;;;;;;10.05;2.28;;;14.70;99.90;;;;;;4917107;29;20198;-72
2022/09/24 10:23:40;;;;;;;5.18;1.70;;;14.70;99.90;;;;;;4926399;29;20143;-71
2022/09/24 10:26:06;;;;;;;10.18;1.60;;;14.80;99.90;;;;;;4922417;29;20126;-72
2022/09/24 10:31:25;;;;;;;8.35;1.80;;;14.80;99.90;;;;;;4933971;29;20063;-71
2022/09/24 10:33:54;;;;;;;8.73;2.40;;;14.80;99.90;;;;;;4914815;29;20077;-71
2022/09/24 10:36:28;;;;;;;6.50;1.35;;;14.80;99.90;;;;;;4932503;29;20040;-72
2022/09/24 10:39:06;;;;;;;11.35;1.52;;;14.90;99.90;;;;;;4908506;29;20052;-71
2022/09/24 10:41:32;;;;;;;5.10;1.10;;;14.80;99.90;;;;;;4933098;29;20048;-71
2022/09/24 10:44:05;;;;;;;6.90;1.70;;;14.90;99.90;;;;;;4933455;29;20050;-71
2022/09/24 10:46:37;;;;;;;8.75;1.80;;;14.90;99.90;;;;;;4933319;29;20079;-72
2022/09/24 10:49:17;;;;;;;9.85;2.80;;;14.90;99.90;;;;;;4933696;29;20100;-72
2022/09/24 10:51:52;;;;;;;9.43;1.55;;;14.90;99.90;;;;;;4931984;29;20059;-71
2022/09/24 10:54:58;;;;;;;9.32;1.65;;;14.90;99.90;;;;;;4916118;29;20055;-71
2022/09/24 10:57:38;;;;;;;5.65;1.30;;;14.90;99.90;;;;;;4838555;29;20432;-72
2022/09/24 11:00:20;;;;;;;4.38;1.25;;;14.90;99.90;;;;;;4924189;29;20114;-71
2022/09/24 11:02:55;;;;;;;9.15;1.83;;;14.90;99.90;;;;;;4917528;29;20048;-72
2022/09/24 11:05:22;;;;;;;6.00;1.38;;;15.00;99.90;;;;;;4934369;29;20127;-71
2022/09/24 11:07:58;;;;;;;5.28;1.75;;;14.90;99.90;;;;;;4932129;29;20052;-70
2022/09/24 11:10:50;;;;;;;10.73;2.25;;;14.90;99.90;;;;;;4930920;29;20043;-72
2022/09/24 11:13:19;;;;;;;7.85;1.98;;;14.90;99.90;;;;;;4929744;29;20058;-72
2022/09/24 11:16:03;;;;;;;7.10;1.77;;;14.90;99.90;;;;;;4932312;29;20058;-72
2022/09/24 11:19:01;;;;;;;13.77;2.38;;;14.80;99.90;;;;;;4933715;29;20052;-71
2022/09/24 11:21:35;;;;;;;10.50;1.95;;;14.80;99.90;;;;;;4918408;29;20525;-71
2022/09/24 11:24:14;;;;;;;6.30;1.42;;;14.90;99.90;;;;;;4926421;29;20047;-71
2022/09/24 11:27:06;;;;;;;10.48;1.73;;;14.80;99.90;;;;;;4916667;29;20102;-70
2022/09/24 11:29:39;;;;;;;7.13;1.65;;;14.80;99.90;;;;;;4933020;29;20059;-72
2022/09/24 11:32:08;;;;;;;10.65;2.17;;;14.80;99.90;;;;;;4931128;29;20054;-71
2022/09/24 11:34:37;;;;;;;7.53;1.60;;;14.70;99.90;;;;;;4932680;29;20513;-71
2022/09/24 11:37:36;;;;;;;6.50;1.80;;;14.80;99.90;;;;;;4914640;29;20104;-71
2022/09/24 11:40:28;;;;;;;8.45;2.22;;;14.80;99.90;;;;;;4903777;29;20571;-71
2022/09/24 11:43:18;;;;;;;13.63;2.00;;;14.70;99.90;;;;;;4931040;29;20059;-70
2022/09/24 11:45:57;;;;;;;10.25;1.77;;;14.60;99.90;;;;;;4916537;29;20052;-71
2022/09/24 11:48:42;;;;;;;14.55;1.77;;;14.60;99.90;;;;;;4930002;29;20119;-71
2022/09/24 11:51:19;;;;;;;7.55;1.45;;;14.70;99.90;;;;;;4932880;29;20044;-70
2022/09/24 11:53:55;;;;;;;11.50;1.80;;;14.70;99.90;;;;;;4933070;29;20039;-70
2022/09/24 11:56:42;;;;;;;10.05;1.95;;;14.60;99.90;;;;;;4932287;29;20040;-71
2022/09/24 11:59:40;;;;;;;12.25;2.00;;;14.60;99.90;;;;;;4918806;29;20386;-71
2022/09/24 12:02:23;;;;;;;5.72;1.42;;;14.60;99.90;;;;;;4917644;29;20438;-71
2022/09/24 12:05:01;;;;;;;9.70;2.20;;;14.70;99.90;;;;;;4948326;29;20041;-72
2022/09/24 12:07:36;;;;;;;8.55;2.13;;;14.60;99.90;;;;;;4932865;29;20091;-72
2022/09/24 12:10:32;;;;;;;9.52;1.75;;;14.50;99.90;;;;;;4934146;29;20055;-73
2022/09/24 12:13:33;;;;;;;14.93;2.30;;;14.50;99.90;;;;;;4930466;29;20039;-72
2022/09/24 12:16:12;;;;;;;4.20;1.80;;;14.60;99.90;;;;;;4925145;29;20134;-70
2022/09/24 12:19:01;;;;;;;7.82;1.67;;;14.50;99.90;;;;;;4936514;29;20055;-70
2022/09/24 12:21:33;;;;;;;9.13;1.70;;;14.60;99.90;;;;;;4929984;29;20043;-70
2022/09/24 12:24:03;;;;;;;5.90;1.73;;;14.50;99.90;;;;;;4916571;29;20115;-70
2022/09/24 12:26:33;;;;;;;11.75;2.22;;;14.50;99.90;;;;;;4933222;29;20047;-70
2022/09/24 12:32:56;;;;;;;9.68;2.25;;;14.50;99.90;;;;;;4896371;29;20052;-71
2022/09/24 12:35:36;;;;;;;3.30;1.13;;;14.50;99.90;;;;;;4932863;29;20127;-71
2022/09/24 12:38:27;;;;;;;4.82;1.70;;;14.60;99.90;;;;;;4929363;29;20044;-70
2022/09/24 12:41:09;;;;;;;5.88;1.52;;;14.50;99.90;;;;;;4934168;29;20047;-70
2022/09/24 12:43:53;;;;;;;11.80;1.40;;;14.50;99.90;;;;;;4931805;29;20047;-70
2022/09/24 12:46:32;;;;;;;7.40;1.70;;;14.50;99.90;;;;;;4916463;29;20040;-70
2022/09/24 12:48:59;;;;;;;7.85;1.77;;;14.50;99.90;;;;;;4915715;29;20126;-71
2022/09/24 12:51:35;;;;;;;4.88;1.67;;;14.40;99.90;;;;;;4931762;29;20051;-71
2022/09/24 12:54:34;;;;;;;4.78;1.05;;;14.40;99.90;;;;;;4910088;29;20058;-69
2022/09/24 12:57:22;;;;;;;7.35;1.98;;;14.40;99.90;;;;;;4930339;29;20393;-72
2022/09/24 12:59:52;;;;;;;3.92;1.25;;;14.30;99.90;;;;;;4933513;29;20049;-72
2022/09/24 13:02:45;;;;;;;9.43;1.92;;;14.40;99.90;;;;;;4914797;29;20046;-69
2022/09/24 13:05:22;;;;;;;9.77;1.40;;;14.30;99.90;;;;;;4930933;29;20083;-68
2022/09/24 13:08:10;;;;;;;5.13;1.23;;;14.30;99.90;;;;;;4927664;29;20405;-67
2022/09/24 13:10:36;;;;;;;9.32;1.50;;;14.20;99.90;;;;;;4917119;29;20099;-68
2022/09/24 13:13:19;;;;;;;5.88;1.25;;;14.20;99.90;;;;;;4931014;29;20071;-69
2022/09/24 13:15:57;;;;;;;7.38;1.70;;;14.10;99.90;;;;;;4935029;29;20059;-70
2022/09/24 13:18:23;;;;;;;4.30;1.30;;;14.10;99.90;;;;;;4924173;29;20052;-70
2022/09/24 13:20:59;;;;;;;5.15;1.30;;;14.10;99.90;;;;;;4933868;29;20043;-71
2022/09/24 13:23:26;;;;;;;8.18;1.45;;;14.20;99.90;;;;;;4917663;29;20063;-69
2022/09/24 13:25:56;;;;;;;8.55;2.00;;;14.10;99.90;;;;;;4927044;29;20052;-71
2022/09/24 13:28:28;;;;;;;11.35;2.05;;;14.10;99.90;;;;;;4933004;29;20179;-71
2022/09/24 13:31:20;;;;;;;5.38;1.38;;;14.00;99.90;;;;;;4932072;29;20066;-70
2022/09/24 13:33:53;;;;;;;6.78;1.50;;;14.00;99.90;;;;;;4921383;29;20103;-70
2022/09/24 13:36:31;;;;;;;6.43;1.73;;;14.10;99.90;;;;;;4928959;29;20032;-70
2022/09/24 13:38:57;;;;;;;9.75;1.83;;;14.10;99.90;;;;;;4906476;29;20114;-71
2022/09/24 13:41:58;;;;;;;10.88;2.00;;;14.10;99.90;;;;;;4928326;29;20413;-70
2022/09/24 13:44:34;;;;;;;6.95;1.75;;;14.10;99.90;;;;;;4933021;29;20066;-71
2022/09/24 13:47:10;;;;;;;8.00;1.55;;;14.20;99.90;;;;;;4928895;29;20044;-71
2022/09/24 13:49:40;;;;;;;11.30;2.05;;;14.20;99.90;;;;;;4933333;29;20047;-71
2022/09/24 13:52:23;;;;;;;6.28;1.55;;;14.20;99.90;;;;;;4931460;29;20043;-70
2022/09/24 13:54:55;;;;;;;10.60;2.55;;;14.20;99.90;;;;;;4924293;29;20512;-70
2022/09/24 13:57:27;;;;;;;11.60;1.90;;;14.30;99.90;;;;;;4930956;29;20071;-70
2022/09/24 14:00:18;;;;;;;10.80;1.88;;;14.30;99.90;;;;;;4933593;29;20050;-71
2022/09/24 14:03:20;;;;;;;13.80;1.92;;;14.40;99.90;;;;;;4930031;29;20035;-69
2022/09/24 14:05:47;;;;;;;13.88;2.00;;;14.40;99.90;;;;;;4928635;29;20035;-73
2022/09/24 14:08:15;;;;;;;9.40;1.90;;;14.40;99.90;;;;;;4932388;29;20048;-69